createdAt,value
2022-12-01T00:02:17.937Z,94.35
2022-12-01T00:04:44.371Z,94.96
2022-12-01T00:07:10.938Z,94.73
2022-12-01T00:09:56.014Z,94.69
2022-12-01T00:12:22.340Z,95.03
2022-12-01T00:14:54.835Z,94.89
2022-12-01T00:17:21.797Z,94.84
2022-12-01T00:19:48.348Z,94.87
2022-12-01T00:22:14.856Z,94.56
2022-12-01T00:24:41.179Z,95.18
2022-12-01T00:27:07.633Z,94.94
2022-12-01T00:29:34.067Z,94.61
2022-12-01T00:32:00.492Z,95.02
2022-12-01T00:34:28.072Z,94.67
2022-12-01T00:36:54.483Z,95.21
2022-12-01T00:39:21.129Z,94.81
2022-12-01T00:41:47.504Z,94.57
2022-12-01T00:44:13.896Z,94.76
2022-12-01T00:46:40.347Z,95.14
2022-12-01T00:49:06.726Z,94.80
2022-12-01T00:51:33.077Z,95.04
2022-12-01T00:53:59.478Z,94.66
2022-12-01T00:56:25.835Z,94.99
2022-12-01T00:58:52.212Z,94.62
2022-12-01T01:01:18.770Z,94.53
2022-12-01T01:03:45.186Z,94.86
2022-12-01T01:06:12.990Z,95.17
2022-12-01T01:08:39.914Z,95.24
2022-12-01T01:11:07.194Z,94.60
2022-12-01T01:13:34.318Z,95.06
2022-12-01T01:16:06.362Z,94.84
2022-12-01T01:18:33.744Z,94.65
2022-12-01T01:21:03.273Z,94.74
2022-12-01T01:23:29.911Z,95.06
2022-12-01T01:26:09.343Z,94.66
2022-12-01T01:28:36.121Z,94.82
2022-12-01T01:31:06.742Z,94.73
2022-12-01T01:33:33.351Z,94.38
2022-12-01T01:36:00.939Z,94.77
2022-12-01T01:38:29.057Z,94.63
2022-12-01T01:40:55.504Z,95.11
2022-12-01T01:43:40.658Z,94.62
2022-12-01T01:46:07.534Z,94.75
2022-12-01T01:48:36.575Z,94.42
2022-12-01T01:51:03.710Z,94.35
2022-12-01T01:53:30.873Z,94.67
2022-12-01T01:55:58.570Z,94.46
2022-12-01T01:58:26.078Z,94.54
2022-12-01T02:00:52.509Z,94.74
2022-12-01T02:03:20.239Z,94.71
2022-12-01T02:05:47.243Z,94.54
2022-12-01T02:08:13.782Z,94.29
2022-12-01T02:11:23.376Z,94.63
2022-12-01T02:14:28.457Z,94.60
2022-12-01T02:17:05.608Z,94.86
2022-12-01T02:20:14.004Z,94.55
2022-12-01T02:23:05.387Z,94.66
2022-12-01T02:25:54.281Z,94.32
2022-12-01T02:28:29.158Z,94.36
2022-12-01T02:31:14.856Z,94.69
2022-12-01T02:33:46.704Z,94.41
2022-12-01T02:36:20.977Z,94.01
2022-12-01T02:39:14.171Z,94.47
2022-12-01T02:41:47.734Z,93.91
2022-12-01T02:44:19.791Z,93.87
2022-12-01T02:46:59.821Z,94.13
2022-12-01T02:49:31.185Z,94.06
2022-12-01T02:51:58.911Z,94.18
2022-12-01T02:54:28.603Z,94.40
2022-12-01T02:56:54.979Z,94.41
2022-12-01T02:59:21.369Z,93.81
2022-12-01T03:02:06.225Z,94.35
2022-12-01T03:04:55.755Z,94.41
2022-12-01T03:07:47.226Z,94.35
2022-12-01T03:10:31.364Z,94.37
2022-12-01T03:13:37.349Z,93.70
2022-12-01T03:16:15.876Z,93.69
2022-12-01T03:18:51.362Z,94.19
2022-12-01T03:21:28.414Z,93.86
2022-12-01T03:24:00.891Z,93.95
2022-12-01T03:26:31.303Z,93.88
2022-12-01T03:29:08.875Z,93.95
2022-12-01T03:31:42.671Z,93.96
2022-12-01T03:34:17.955Z,94.17
2022-12-01T03:37:06.996Z,94.11
2022-12-01T03:39:35.898Z,94.03
2022-12-01T03:42:18.287Z,93.79
2022-12-01T03:44:57.467Z,93.84
2022-12-01T03:47:28.740Z,94.06
2022-12-01T03:49:55.724Z,93.45
2022-12-01T03:52:38.592Z,94.06
2022-12-01T03:55:11.986Z,93.90
2022-12-01T03:57:45.542Z,93.76
2022-12-01T04:00:14.896Z,93.56
2022-12-01T04:02:41.553Z,93.85
2022-12-01T04:05:11.022Z,93.99
2022-12-01T04:07:39.151Z,93.45
2022-12-01T04:10:06.989Z,93.69
2022-12-01T04:12:34.079Z,93.45
2022-12-01T04:15:08.543Z,93.36
2022-12-01T04:17:35.086Z,93.66
2022-12-01T04:20:01.732Z,93.60
2022-12-01T04:22:28.327Z,93.56
2022-12-01T04:24:54.646Z,93.73
2022-12-01T04:27:21.297Z,93.75
2022-12-01T04:29:48.097Z,93.77
2022-12-01T04:32:15.252Z,93.66
2022-12-01T04:34:41.630Z,93.58
2022-12-01T04:37:08.305Z,93.84
2022-12-01T04:39:34.733Z,93.97
2022-12-01T04:42:01.176Z,94.04
2022-12-01T04:44:32.982Z,93.79
2022-12-01T04:47:01.224Z,93.69
2022-12-01T04:49:27.669Z,93.67
2022-12-01T04:51:54.107Z,93.50
2022-12-01T04:54:20.482Z,93.79
2022-12-01T04:56:46.843Z,93.50
2022-12-01T04:59:13.326Z,93.82
2022-12-01T05:01:40.389Z,93.90
2022-12-01T05:04:07.234Z,93.75
2022-12-01T05:06:33.714Z,93.48
2022-12-01T05:09:01.403Z,93.76
2022-12-01T05:11:29.941Z,93.79
2022-12-01T05:13:56.558Z,94.09
2022-12-01T05:16:28.749Z,94.05
2022-12-01T05:19:16.577Z,93.75
2022-12-01T05:21:44.753Z,93.42
2022-12-01T05:24:12.344Z,93.54
2022-12-01T05:26:39.435Z,93.76
2022-12-01T05:29:06.209Z,93.34
2022-12-01T05:31:32.901Z,93.55
2022-12-01T05:33:59.379Z,93.87
2022-12-01T05:36:25.914Z,93.78
2022-12-01T05:38:52.423Z,93.75
2022-12-01T05:41:18.777Z,93.28
2022-12-01T05:43:45.086Z,94.00
2022-12-01T05:46:11.477Z,93.66
2022-12-01T05:48:37.815Z,93.90
2022-12-01T05:51:12.017Z,93.91
2022-12-01T05:53:38.446Z,94.50
2022-12-01T05:56:05.702Z,93.81
2022-12-01T05:58:32.414Z,94.23
2022-12-01T06:00:59.631Z,93.88
2022-12-01T06:03:26.025Z,94.26
2022-12-01T06:05:52.400Z,94.20
2022-12-01T06:08:18.926Z,94.02
2022-12-01T06:10:45.911Z,93.96
2022-12-01T06:13:12.421Z,94.24
2022-12-01T06:15:38.888Z,94.13
2022-12-01T06:18:05.341Z,93.47
2022-12-01T06:20:31.717Z,93.72
2022-12-01T06:22:59.506Z,93.51
2022-12-01T06:25:25.883Z,93.83
2022-12-01T06:27:57.313Z,93.86
2022-12-01T06:30:24.072Z,93.67
2022-12-01T06:32:50.471Z,93.37
2022-12-01T06:35:16.865Z,93.50
2022-12-01T06:37:43.227Z,93.35
2022-12-01T06:40:10.247Z,93.92
2022-12-01T06:42:36.615Z,93.73
2022-12-01T06:45:02.958Z,93.72
2022-12-01T06:47:29.375Z,93.47
2022-12-01T06:49:55.740Z,93.82
2022-12-01T06:52:22.102Z,93.54
2022-12-01T06:54:48.426Z,93.44
2022-12-01T06:57:15.369Z,93.52
2022-12-01T06:59:42.212Z,94.04
2022-12-01T07:02:10.931Z,93.66
2022-12-01T07:04:37.323Z,93.49
2022-12-01T07:07:05.324Z,93.94
2022-12-01T07:09:31.676Z,93.38
2022-12-01T07:11:58.046Z,94.08
2022-12-01T07:14:26.676Z,94.00
2022-12-01T07:16:53.424Z,94.31
2022-12-01T07:19:20.251Z,94.29
2022-12-01T07:21:46.625Z,93.97
2022-12-01T07:24:13.570Z,94.52
2022-12-01T07:26:42.148Z,94.63
2022-12-01T07:29:11.772Z,94.22
2022-12-01T07:31:39.113Z,94.86
2022-12-01T07:34:06.450Z,94.91
2022-12-01T07:36:33.056Z,94.66
2022-12-01T07:38:59.375Z,94.75
2022-12-01T07:41:25.864Z,94.62
2022-12-01T07:43:52.252Z,95.00
2022-12-01T07:46:23.857Z,95.16
2022-12-01T07:48:50.884Z,95.08
2022-12-01T07:51:17.684Z,95.17
2022-12-01T07:53:49.278Z,95.82
2022-12-01T07:56:16.726Z,95.71
2022-12-01T07:58:43.139Z,95.39
2022-12-01T08:01:21.323Z,95.76
2022-12-01T08:03:56.068Z,95.64
2022-12-01T08:06:23.584Z,96.11
2022-12-01T08:08:50.575Z,95.77
2022-12-01T08:11:23.231Z,96.55
2022-12-01T08:13:51.201Z,96.63
2022-12-01T08:16:19.590Z,96.82
2022-12-01T08:18:46.225Z,96.42
2022-12-01T08:21:15.684Z,96.79
2022-12-01T08:23:42.697Z,96.46
2022-12-01T08:26:15.665Z,96.50
2022-12-01T08:28:42.879Z,97.30
2022-12-01T08:31:27.683Z,97.26
2022-12-01T08:33:54.651Z,96.96
2022-12-01T08:36:22.417Z,97.20
2022-12-01T08:38:52.906Z,96.75
2022-12-01T08:41:20.176Z,96.62
2022-12-01T08:43:57.863Z,96.80
2022-12-01T08:46:27.082Z,97.09
2022-12-01T08:48:54.912Z,96.85
2022-12-01T08:51:21.329Z,97.32
2022-12-01T08:53:49.569Z,97.22
2022-12-01T08:56:20.230Z,97.11
2022-12-01T08:58:46.718Z,97.30
2022-12-01T09:01:15.415Z,97.36
2022-12-01T09:03:43.094Z,97.29
2022-12-01T09:06:15.847Z,96.82
2022-12-01T09:08:43.446Z,96.78
2022-12-01T09:11:12.501Z,97.16
2022-12-01T09:13:40.263Z,96.55
2022-12-01T09:16:10.814Z,96.25
2022-12-01T09:18:37.859Z,96.82
2022-12-01T09:21:12.815Z,96.70
2022-12-01T09:23:39.632Z,96.11
2022-12-01T09:26:12.140Z,96.01
2022-12-01T09:28:39.857Z,95.79
2022-12-01T09:31:08.827Z,95.52
2022-12-01T09:33:35.611Z,95.57
2022-12-01T09:36:03.274Z,95.50
2022-12-01T09:38:30.563Z,95.62
2022-12-01T09:41:00.621Z,95.13
2022-12-01T09:43:33.156Z,94.70
2022-12-01T09:46:05.928Z,94.28
2022-12-01T09:48:47.727Z,94.33
2022-12-01T09:51:19.330Z,94.15
2022-12-01T09:53:48.332Z,93.65
2022-12-01T09:56:26.657Z,93.47
2022-12-01T09:58:56.658Z,93.03
2022-12-01T10:01:33.258Z,92.94
2022-12-01T10:04:08.112Z,92.49
2022-12-01T10:07:02.966Z,92.40
2022-12-01T10:09:53.202Z,92.06
2022-12-01T10:12:27.575Z,92.03
2022-12-01T10:15:02.295Z,91.64
2022-12-01T10:17:59.458Z,91.39
2022-12-01T10:20:40.943Z,91.28
2022-12-01T10:23:41.692Z,90.95
2022-12-01T10:26:16.027Z,90.84
2022-12-01T10:29:02.896Z,90.77
2022-12-01T10:31:39.444Z,90.68
2022-12-01T10:34:18.026Z,90.52
2022-12-01T10:36:44.475Z,90.92
2022-12-01T10:39:34.163Z,90.64
2022-12-01T10:42:07.423Z,90.41
2022-12-01T10:44:35.799Z,90.65
2022-12-01T10:47:03.076Z,90.40
2022-12-01T10:49:40.579Z,90.25
2022-12-01T10:52:25.644Z,89.94
2022-12-01T10:54:52.017Z,89.65
2022-12-01T10:57:18.343Z,89.40
2022-12-01T10:59:55.530Z,89.40
2022-12-01T11:02:24.317Z,89.40
2022-12-01T11:05:00.248Z,89.23
2022-12-01T11:07:34.402Z,88.82
2022-12-01T11:10:15.177Z,88.66
2022-12-01T11:12:44.922Z,88.46
2022-12-01T11:15:49.058Z,87.62
2022-12-01T11:18:36.093Z,87.52
2022-12-01T11:21:16.616Z,87.35
2022-12-01T11:23:48.132Z,86.87
2022-12-01T11:26:26.251Z,86.45
2022-12-01T11:28:56.430Z,86.41
2022-12-01T11:31:36.041Z,86.10
2022-12-01T11:34:02.554Z,85.77
2022-12-01T11:36:44.564Z,85.80
2022-12-01T11:39:27.533Z,85.40
2022-12-01T11:42:00.370Z,85.48
2022-12-01T11:44:50.431Z,85.14
2022-12-01T11:47:24.965Z,84.29
2022-12-01T11:49:57.960Z,84.18
2022-12-01T11:52:29.835Z,83.83
2022-12-01T11:55:12.851Z,83.49
2022-12-01T11:57:43.297Z,83.27
2022-12-01T12:00:13.835Z,83.49
2022-12-01T12:02:46.383Z,83.04
2022-12-01T12:05:34.172Z,83.57
2022-12-01T12:08:26.115Z,82.94
2022-12-01T12:11:10.466Z,82.96
2022-12-01T12:13:59.342Z,83.26
2022-12-01T12:16:37.859Z,83.38
2022-12-01T12:20:06.775Z,83.17
2022-12-01T12:22:56.440Z,83.40
2022-12-01T12:25:31.848Z,83.72
2022-12-01T12:28:28.206Z,83.59
2022-12-01T12:31:14.816Z,83.16
2022-12-01T12:34:00.369Z,82.94
2022-12-01T12:36:50.095Z,82.84
2022-12-01T12:39:57.423Z,81.94
2022-12-01T12:42:38.720Z,81.74
2022-12-01T12:45:20.371Z,81.36
2022-12-01T12:47:55.730Z,81.49
2022-12-01T12:50:38.739Z,81.66
2022-12-01T12:53:13.898Z,81.94
2022-12-01T12:55:45.221Z,81.77
2022-12-01T12:58:20.075Z,80.99
2022-12-01T13:00:51.230Z,81.40
2022-12-01T13:03:45.405Z,80.71
2022-12-01T13:06:36.617Z,80.74
2022-12-01T13:09:22.312Z,81.01
2022-12-01T13:12:00.469Z,80.84
2022-12-01T13:14:32.993Z,81.13
2022-12-01T13:17:09.994Z,81.03
2022-12-01T13:19:39.458Z,81.75
2022-12-01T13:22:07.851Z,81.85
2022-12-01T13:24:34.309Z,81.47
2022-12-01T13:27:06.454Z,81.18
2022-12-01T13:29:38.487Z,81.53
2022-12-01T13:32:07.594Z,81.63
2022-12-01T13:34:39.185Z,81.53
2022-12-01T13:37:06.030Z,81.76
2022-12-01T13:39:37.261Z,81.95
2022-12-01T13:42:24.353Z,82.31
2022-12-01T13:45:00.533Z,82.58
2022-12-01T13:47:46.825Z,82.49
2022-12-01T13:50:43.100Z,82.24
2022-12-01T13:53:27.397Z,82.41
2022-12-01T13:56:02.765Z,82.08
2022-12-01T13:58:32.617Z,82.52
2022-12-01T14:01:21.381Z,82.52
2022-12-01T14:04:03.518Z,82.78
2022-12-01T14:06:35.736Z,82.95
2022-12-01T14:09:07.110Z,82.88
2022-12-01T14:11:35.080Z,83.01
2022-12-01T14:14:25.611Z,83.08
2022-12-01T14:16:58.318Z,83.31
2022-12-01T14:19:52.212Z,83.31
2022-12-01T14:22:41.862Z,83.45
2022-12-01T14:25:20.498Z,83.62
2022-12-01T14:27:50.227Z,83.36
2022-12-01T14:30:41.483Z,83.54
2022-12-01T14:33:39.057Z,83.60
2022-12-01T14:36:23.763Z,83.47
2022-12-01T14:39:04.367Z,83.63
2022-12-01T14:41:36.568Z,83.72
2022-12-01T14:44:12.234Z,84.00
2022-12-01T14:47:06.675Z,83.90
2022-12-01T14:49:39.487Z,84.25
2022-12-01T14:52:15.434Z,83.87
2022-12-01T14:54:49.787Z,84.21
2022-12-01T14:57:22.543Z,84.37
2022-12-01T15:00:05.828Z,84.21
2022-12-01T15:02:32.475Z,84.46
2022-12-01T15:05:29.510Z,84.24
2022-12-01T15:08:18.587Z,84.66
2022-12-01T15:10:56.740Z,85.06
2022-12-01T15:13:30.926Z,84.78
2022-12-01T15:16:00.591Z,85.24
2022-12-01T15:18:30.326Z,85.40
2022-12-01T15:21:31.902Z,85.30
2022-12-01T15:23:58.224Z,85.10
2022-12-01T15:26:28.483Z,85.46
2022-12-01T15:29:05.007Z,85.49
2022-12-01T15:31:32.163Z,85.65
2022-12-01T15:33:58.863Z,85.84
2022-12-01T15:36:25.395Z,85.63
2022-12-01T15:38:52.844Z,85.54
2022-12-01T15:41:28.997Z,85.58
2022-12-01T15:43:58.220Z,85.47
2022-12-01T15:46:30.045Z,85.78
2022-12-01T15:49:17.114Z,85.82
2022-12-01T15:51:43.689Z,85.71
2022-12-01T15:54:19.333Z,86.25
2022-12-01T15:56:46.763Z,86.10
2022-12-01T15:59:13.038Z,86.17
2022-12-01T16:01:41.646Z,86.11
2022-12-01T16:04:22.972Z,86.26
2022-12-01T16:07:05.718Z,86.44
2022-12-01T16:09:39.661Z,86.64
2022-12-01T16:12:09.044Z,86.56
2022-12-01T16:14:36.595Z,86.72
2022-12-01T16:17:05.305Z,86.69
2022-12-01T16:19:33.322Z,86.62
2022-12-01T16:22:11.523Z,86.69
2022-12-01T16:24:55.413Z,87.07
2022-12-01T16:27:23.873Z,87.41
2022-12-01T16:29:53.401Z,87.00
2022-12-01T16:32:27.615Z,87.41
2022-12-01T16:34:54.098Z,87.23
2022-12-01T16:37:21.622Z,87.73
2022-12-01T16:39:48.732Z,88.42
2022-12-01T16:42:18.607Z,87.92
2022-12-01T16:44:46.492Z,88.38
2022-12-01T16:47:24.469Z,88.10
2022-12-01T16:49:51.938Z,87.73
2022-12-01T16:55:25.358Z,88.25
2022-12-01T16:57:51.864Z,88.38
2022-12-01T17:00:18.562Z,88.33
2022-12-01T17:02:44.982Z,88.46
2022-12-01T17:05:11.571Z,88.37
2022-12-01T17:07:38.212Z,88.50
2022-12-01T17:10:05.199Z,88.38
2022-12-01T17:12:31.546Z,88.37
2022-12-01T17:14:57.924Z,88.71
2022-12-01T17:17:24.250Z,88.90
2022-12-01T17:19:53.430Z,88.79
2022-12-01T17:22:20.559Z,88.50
2022-12-01T17:24:47.084Z,88.80
2022-12-01T17:27:13.789Z,88.73
2022-12-01T17:29:45.657Z,88.52
2022-12-01T17:32:13.526Z,89.40
2022-12-01T17:34:40.500Z,89.02
2022-12-01T17:37:07.090Z,88.78
2022-12-01T17:39:33.636Z,89.07
2022-12-01T17:42:00.078Z,89.56
2022-12-01T17:44:26.491Z,89.70
2022-12-01T17:46:52.947Z,89.17
2022-12-01T17:49:19.434Z,89.47
2022-12-01T17:51:45.788Z,89.86
2022-12-01T17:54:12.207Z,89.84
2022-12-01T17:56:38.616Z,89.97
2022-12-01T17:59:05.051Z,90.13
2022-12-01T18:01:31.532Z,89.56
2022-12-01T18:03:58.854Z,90.11
2022-12-01T18:06:26.801Z,90.30
2022-12-01T18:08:53.575Z,90.03
2022-12-01T18:11:20.370Z,90.07
2022-12-01T18:13:48.927Z,90.21
2022-12-01T18:16:30.484Z,89.69
2022-12-01T18:18:58.451Z,90.04
2022-12-01T18:21:26.374Z,90.16
2022-12-01T18:23:58.799Z,90.04
2022-12-01T18:26:26.161Z,90.21
2022-12-01T18:28:57.256Z,90.92
2022-12-01T18:31:24.528Z,90.96
2022-12-01T18:33:51.299Z,90.88
2022-12-01T18:36:23.775Z,91.05
2022-12-01T18:38:51.743Z,91.15
2022-12-01T18:41:18.495Z,91.29
2022-12-01T18:43:45.627Z,91.55
2022-12-01T18:46:13.769Z,91.49
2022-12-01T18:48:54.420Z,91.69
2022-12-01T18:51:21.303Z,91.80
2022-12-01T18:53:48.710Z,92.05
2022-12-01T18:56:15.696Z,91.78
2022-12-01T18:58:42.665Z,91.79
2022-12-01T19:01:24.599Z,92.07
2022-12-01T19:03:51.603Z,91.91
2022-12-01T19:06:18.599Z,92.05
2022-12-01T19:08:44.994Z,92.19
2022-12-01T19:11:11.318Z,92.66
2022-12-01T19:13:37.699Z,92.51
2022-12-01T19:16:09.130Z,91.92
2022-12-01T19:18:36.674Z,92.24
2022-12-01T19:21:05.404Z,92.28
2022-12-01T19:23:31.787Z,92.44
2022-12-01T19:25:58.880Z,92.54
2022-12-01T19:28:25.259Z,92.43
2022-12-01T19:30:51.635Z,92.66
2022-12-01T19:33:17.994Z,92.80
2022-12-01T19:35:44.405Z,92.68
2022-12-01T19:38:10.904Z,92.65
2022-12-01T19:40:38.590Z,92.94
2022-12-01T19:43:05.314Z,93.26
2022-12-01T19:45:31.907Z,93.59
2022-12-01T19:47:58.553Z,92.96
2022-12-01T19:50:25.167Z,93.03
2022-12-01T19:52:51.554Z,93.41
2022-12-01T19:55:17.890Z,92.90
2022-12-01T19:57:44.224Z,93.73
2022-12-01T20:00:11.311Z,94.00
2022-12-01T20:02:37.791Z,93.73
2022-12-01T20:05:04.755Z,93.50
2022-12-01T20:07:31.261Z,93.59
2022-12-01T20:09:57.667Z,93.80
2022-12-01T20:12:24.102Z,94.01
2022-12-01T20:14:50.888Z,93.64
2022-12-01T20:17:17.420Z,93.49
2022-12-01T20:19:43.795Z,93.44
2022-12-01T20:22:10.909Z,93.90
2022-12-01T20:24:39.491Z,93.56
2022-12-01T20:27:07.819Z,93.25
2022-12-01T20:29:34.827Z,94.15
2022-12-01T20:32:02.922Z,94.17
2022-12-01T20:34:33.528Z,94.18
2022-12-01T20:37:00.919Z,94.01
2022-12-01T20:39:28.741Z,93.58
2022-12-01T20:41:55.067Z,93.60
2022-12-01T20:44:21.966Z,93.67
2022-12-01T20:46:48.547Z,93.89
2022-12-01T20:49:17.013Z,93.71
2022-12-01T20:51:43.499Z,93.31
2022-12-01T20:54:27.943Z,94.19
2022-12-01T20:56:55.498Z,93.98
2022-12-01T20:59:21.923Z,93.93
2022-12-01T21:01:48.332Z,93.58
2022-12-01T21:04:14.807Z,94.36
2022-12-01T21:06:41.296Z,94.25
2022-12-01T21:09:08.377Z,94.29
2022-12-01T21:12:00.402Z,93.76
2022-12-01T21:14:43.013Z,94.41
2022-12-01T21:17:35.971Z,94.18
2022-12-01T21:20:28.195Z,94.06
2022-12-01T21:23:00.749Z,94.07
2022-12-01T21:25:27.183Z,94.45
2022-12-01T21:27:57.991Z,93.84
2022-12-01T21:30:29.628Z,94.60
2022-12-01T21:33:13.435Z,94.49
2022-12-01T21:35:39.822Z,94.18
2022-12-01T21:38:10.760Z,94.09
2022-12-01T21:40:37.218Z,93.60
2022-12-01T21:43:17.884Z,93.88
2022-12-01T21:45:44.361Z,93.97
2022-12-01T21:48:16.206Z,93.84
2022-12-01T21:50:43.103Z,93.81
2022-12-01T21:53:14.626Z,93.75
2022-12-01T21:55:43.844Z,94.11
2022-12-01T21:58:25.482Z,93.83
2022-12-01T22:00:54.286Z,94.18
2022-12-01T22:03:29.576Z,94.08
2022-12-01T22:06:28.168Z,94.12
2022-12-01T22:08:59.509Z,94.33
2022-12-01T22:11:30.077Z,94.29
2022-12-01T22:14:11.202Z,93.89
2022-12-01T22:16:46.796Z,94.31
2022-12-01T22:19:32.620Z,94.18
2022-12-01T22:22:01.650Z,94.33
2022-12-01T22:24:33.100Z,93.96
2022-12-01T22:27:11.688Z,94.28
2022-12-01T22:29:46.324Z,94.12
2022-12-01T22:32:12.597Z,93.75
2022-12-01T22:34:45.216Z,94.45
2022-12-01T22:37:38.072Z,94.26
2022-12-01T22:40:33.783Z,94.69
2022-12-01T22:43:16.309Z,94.22
2022-12-01T22:45:57.803Z,94.09
2022-12-01T22:48:35.794Z,94.28
2022-12-01T22:51:22.135Z,94.48
2022-12-01T22:53:49.211Z,94.69
2022-12-01T22:56:31.668Z,94.10
2022-12-01T22:58:58.085Z,94.44
2022-12-01T23:01:33.660Z,94.29
2022-12-01T23:04:14.423Z,94.16
2022-12-01T23:06:58.778Z,93.96
2022-12-01T23:09:35.488Z,93.68
2022-12-01T23:12:15.699Z,93.66
2022-12-01T23:14:47.621Z,93.44
2022-12-01T23:17:19.431Z,93.71
2022-12-01T23:19:46.207Z,94.18
2022-12-01T23:22:15.559Z,93.72
2022-12-01T23:24:42.112Z,93.79
2022-12-01T23:27:08.526Z,93.08
2022-12-01T23:29:34.901Z,93.38
2022-12-01T23:32:01.234Z,93.37
2022-12-01T23:34:28.637Z,93.29
2022-12-01T23:36:55.032Z,93.38
2022-12-01T23:39:31.810Z,93.10
2022-12-01T23:41:58.814Z,93.28
2022-12-01T23:44:40.953Z,92.85
2022-12-01T23:47:24.767Z,92.75
2022-12-01T23:50:03.466Z,92.71
2022-12-01T23:52:35.852Z,92.98
2022-12-01T23:55:11.371Z,92.70
2022-12-01T23:57:37.807Z,92.48
